Hordern Vale, Australia
Current Conditions -  °F | °C
As of 10:00 PM on Thursday 23 Oct 2014 (Local Time) from YMAV Reporting Station
Overcast Overcast  
Wind Chill: 61°   Ceiling: 1500
Heat Index: 61°   Visibility: 6mi
Dew Point: 57°   Wind: 17mph
Humidity: 88%   Direction: 130°SE
Pressure: 30"   Gusts: NA
Location:  38.77°S, 143.51°E
Report Text: YMAV 231100Z AUTO 13015KT 9999 // OVC015 16/14 Q1016
Loading
Personal Weather Stations






























Interactive Weather Map
Tropical Storm Tracking
New forecast layout! Learn more

10-Day Weather Forecast

Advertisements
Track Severe Weather on mobile